Historyczne dane pomiarowe

Dodano dane terminowe – wersja testowa.

Dane z okresu 1951-2019

Wersja bazy: 1.34 [2019-03-16, lista zmian], aktualizacja planowana na 2019-04-15

Dane meteo z obszaru Polski uzyskane na podstawie danych udostępnionych przez Instytut Meteorologii i Gospodarki Wodnej – Państwowy Instytut Badawczy.

 

Wybierz Datę:    

       

TemperaturaWilgotnośćWiatrCiśnienieOpadyŚniegCzas trwania zjawisk
 Stacja t tx tn tng RH VA  wxwx mslp ppp RRR   cm mm wxwxwxwxwxwxwx
1962-02-14 -2.3 0.4 -5.3 -4.5 82.3- 8.0 2.3---- 0.0-- 18---------
1962-02-15 -5.1 -2.8 -8.0 -6.5 77.3- 8.0 8.3---- 1.0-- 17---------
1962-02-16 -4.8 -3.0-12.0-13.4 81.8- 6.7 9.3---- 12.5-- 18---------
1962-02-17 -0.6 1.1 -5.7 -4.5 80.5- 8.0 7.7---- 9.0-- 28---------
1962-02-18 -4.3 -1.1 -7.5 -8.2 84.5- 8.0 11.0---- 2.4-- 28---------
1962-02-19 -3.9 -0.4 -7.5 -8.0 86.8- 6.7 4.0---- 1.8-- 30---------
1962-02-20 0.9 1.7 -5.7 -6.2 87.8- 8.0 7.7---- 0.0-- 30---------
1962-02-21 -2.4 1.6 -5.6 -3.2 86.5- 8.0 10.0---- 0.8-- 25---------
1962-02-22 -5.9 -3.0 -9.2 -8.2 78.8- 7.3 4.0---- 0.1-- 26---------
1962-02-23 -8.9 -5.8-12.6-12.5 78.0- 8.0 2.7---- 2.2-- 30---------
1962-02-24 -8.5 -5.4-12.2-11.5 71.5- 8.0 1.7---- 0.8-- 30---------
1962-02-25 -6.4 -4.0-16.8-19.9 78.3- 8.0 2.0---- 2.8-- 30---------
1962-02-26 -4.2 -2.0 -7.0 -6.0 84.8- 8.0 2.7---- 0.0-- 35---------
1962-02-27 -7.2 -4.6-11.6 -7.8 81.8- 8.0 4.0---- 0.0-- 30---------
1962-02-28 -6.1 -3.0-11.2-10.9 81.0- 8.0 2.0---- 0.0-- 30---------
1962-03-01 -4.4 -2.3 -9.0-11.4 84.3- 8.0 2.7---- 1.3-- 28---------
1962-03-02 -5.4 -3.0 -7.1 -8.0 84.3- 8.0 1.3---- 0.0-- 28---------
1962-03-03 -1.5 3.0 -6.5 -8.6 84.8- 7.7 1.7---- 0.3-- 28---------
1962-03-04 2.8 7.8 -4.1 -8.0 81.5- 8.0 2.7---- 3.1-- 26---------
1962-03-05 7.5 13.8 1.4 -1.5 89.3- 7.3 1.7---- 2.7-- 18---------
1962-03-06 3.0 11.6 -1.6 -0.5 82.3- 7.3 6.7---- 0.4-- 9---------
1962-03-07 -2.7 -0.1 -4.1 -3.2 88.8- 8.0 6.7---- 7.0-- 5---------
1962-03-08 -5.2 -2.0 -7.3 -8.0 82.3- 4.0 3.3---- 0.0-- 12---------
1962-03-09 -4.8 -1.1 -7.0-10.7 77.5- 6.7 3.3---- 0.0-- 10---------
1962-03-10 -3.4 -0.7 -8.8-12.2 84.0- 6.0 6.7---- 0.0-- 8---------
1962-03-11 0.4 6.3 -3.1 -6.5-- 6.0 3.3---- 0.0-- 8---------
1962-03-12 0.8 1.6 -1.1 -2.0 83.8- 8.0 2.0---- 7.4-- 5---------
1962-03-13 -3.7 1.1 -5.3 -3.0 85.5- 8.0 15.0---- 0.0-- 10---------
1962-03-14 -7.1 -3.4 -9.3 -9.9 79.3- 4.3 3.3---- 0.2-- 10---------
1962-03-15 -7.4 -6.2 -9.8-10.9 81.0- 8.0 7.0---- 1.5-- 10---------
238.8 ms

 

Źródłem pochodzenia danych jest Instytut Meteorologii i Gospodarki Wodnej – Państwowy Instytut Badawczy. Dane Instytutu Meteorologii i Gospodarki Wodnej – Państwowego Instytutu Badawczego zostały przetworzone.

Dane źródłowe można odnaleźć na stronie https://dane.imgw.pl